createdAt,value
2023-02-08T00:01:23.692Z,19.48
2023-02-08T00:03:53.683Z,18.35
2023-02-08T00:06:22.177Z,20.23
2023-02-08T00:08:50.568Z,19.13
2023-02-08T00:11:18.865Z,18.80
2023-02-08T00:13:47.170Z,18.20
2023-02-08T00:16:16.475Z,20.15
2023-02-08T00:18:44.742Z,20.13
2023-02-08T00:21:17.815Z,19.85
2023-02-08T00:23:46.880Z,19.33
2023-02-08T00:26:15.942Z,20.50
2023-02-08T00:28:44.861Z,18.95
2023-02-08T00:34:26.143Z,19.83
2023-02-08T00:36:55.787Z,19.90
2023-02-08T00:39:24.720Z,19.95
2023-02-08T00:41:53.537Z,19.02
2023-02-08T00:44:21.950Z,19.75
2023-02-08T00:46:50.252Z,21.30
2023-02-08T00:49:19.246Z,20.38
2023-02-08T00:51:47.691Z,20.40
2023-02-08T00:54:18.074Z,21.08
2023-02-08T00:56:46.452Z,20.98
2023-02-08T00:59:15.504Z,21.88
2023-02-08T01:01:46.517Z,20.75
2023-02-08T01:04:14.948Z,20.98
2023-02-08T01:06:43.254Z,19.70
2023-02-08T01:09:13.053Z,20.63
2023-02-08T01:11:42.734Z,19.80
2023-02-08T01:14:11.254Z,19.38
2023-02-08T01:16:40.339Z,20.10
2023-02-08T01:19:08.618Z,20.63
2023-02-08T01:21:38.625Z,22.00
2023-02-08T01:24:07.307Z,21.55
2023-02-08T01:26:36.043Z,20.67
2023-02-08T01:29:08.554Z,20.48
2023-02-08T01:31:38.831Z,20.40
2023-02-08T01:34:08.568Z,21.15
2023-02-08T01:36:37.947Z,21.00
2023-02-08T01:39:07.638Z,20.85
2023-02-08T01:41:38.690Z,19.27
2023-02-08T01:44:43.607Z,19.48
2023-02-08T01:47:13.594Z,20.00
2023-02-08T01:49:42.081Z,20.73
2023-02-08T01:52:15.244Z,19.30
2023-02-08T01:54:47.931Z,19.95
2023-02-08T01:57:16.425Z,19.48
2023-02-08T01:59:49.087Z,19.95
2023-02-08T02:02:22.926Z,19.92
2023-02-08T02:07:39.444Z,20.40
2023-02-08T02:10:13.218Z,20.23
2023-02-08T02:12:43.140Z,18.70
2023-02-08T02:15:12.395Z,19.90
2023-02-08T02:17:42.463Z,20.40
2023-02-08T02:20:19.370Z,21.40
2023-02-08T02:23:21.406Z,19.17
2023-02-08T02:26:26.798Z,18.17
2023-02-08T02:29:31.177Z,18.85
2023-02-08T02:32:20.587Z,19.20
2023-02-08T02:34:56.759Z,18.83
2023-02-08T02:37:38.966Z,19.23
2023-02-08T02:40:17.637Z,19.27
2023-02-08T02:43:17.636Z,18.33
2023-02-08T02:45:55.128Z,19.13
2023-02-08T02:48:32.245Z,18.58
2023-02-08T02:51:04.125Z,19.45
2023-02-08T02:53:39.462Z,19.45
2023-02-08T02:56:13.532Z,18.88
2023-02-08T02:58:43.804Z,19.85
2023-02-08T03:01:12.203Z,20.08
2023-02-08T03:03:42.056Z,18.95
2023-02-08T03:06:15.885Z,19.70
2023-02-08T03:11:28.331Z,19.30
2023-02-08T03:14:23.438Z,19.45
2023-02-08T03:17:12.105Z,19.15
2023-02-08T03:19:48.151Z,19.17
2023-02-08T03:22:23.135Z,20.90
2023-02-08T03:24:56.821Z,20.20
2023-02-08T03:27:32.965Z,19.63
2023-02-08T03:30:04.326Z,20.55
2023-02-08T03:32:40.030Z,19.30
2023-02-08T03:35:16.471Z,19.10
2023-02-08T03:37:48.248Z,18.95
2023-02-08T03:40:22.383Z,19.85
2023-02-08T03:42:54.556Z,21.60
2023-02-08T03:45:27.952Z,20.15
2023-02-08T03:48:01.332Z,21.00
2023-02-08T03:50:37.508Z,19.88
2023-02-08T03:53:07.790Z,20.88
2023-02-08T03:55:38.575Z,21.25
2023-02-08T03:58:12.700Z,21.60
2023-02-08T04:00:46.238Z,21.13
2023-02-08T04:03:18.648Z,20.90
2023-02-08T04:05:48.654Z,23.02
2023-02-08T04:08:17.018Z,23.77
2023-02-08T04:10:45.351Z,24.50
2023-02-08T04:13:14.162Z,23.40
2023-02-08T04:15:42.487Z,27.08
2023-02-08T04:18:10.982Z,27.38
2023-02-08T04:20:39.702Z,27.75
2023-02-08T04:23:09.804Z,26.20
2023-02-08T04:25:38.149Z,24.52
2023-02-08T04:28:06.857Z,29.33
2023-02-08T04:30:35.592Z,29.92
2023-02-08T04:33:03.896Z,29.90
2023-02-08T04:35:32.217Z,30.17
2023-02-08T04:38:00.702Z,30.60
2023-02-08T04:40:31.308Z,29.88
2023-02-08T04:42:59.657Z,31.85
2023-02-08T04:45:30.055Z,29.35
2023-02-08T04:47:59.198Z,29.63
2023-02-08T04:50:27.583Z,28.92
2023-02-08T04:52:55.971Z,27.92
2023-02-08T04:55:24.260Z,29.63
2023-02-08T04:57:54.031Z,29.48
2023-02-08T05:00:22.308Z,28.15
2023-02-08T05:02:54.869Z,29.40
2023-02-08T05:05:23.434Z,33.75
2023-02-08T05:07:51.759Z,33.55
2023-02-08T05:10:20.294Z,33.05
2023-02-08T05:12:48.550Z,31.92
2023-02-08T05:15:18.321Z,33.22
2023-02-08T05:17:46.661Z,34.53
2023-02-08T05:20:15.105Z,33.20
2023-02-08T05:22:43.635Z,34.92
2023-02-08T05:25:12.009Z,33.08
2023-02-08T05:27:40.568Z,31.90
2023-02-08T05:30:09.986Z,31.90
2023-02-08T05:32:39.946Z,31.55
2023-02-08T05:35:08.908Z,35.80
2023-02-08T05:37:37.247Z,34.40
2023-02-08T05:40:06.005Z,35.10
2023-02-08T05:42:34.351Z,34.92
2023-02-08T05:45:02.525Z,37.22
2023-02-08T05:47:30.829Z,37.80
2023-02-08T05:50:00.462Z,36.28
2023-02-08T05:55:14.948Z,35.30
2023-02-08T05:57:43.347Z,35.40
2023-02-08T06:00:13.739Z,34.58
2023-02-08T06:02:44.731Z,33.97
2023-02-08T06:05:14.508Z,34.55
2023-02-08T06:07:42.800Z,34.78
2023-02-08T06:10:11.667Z,34.67
2023-02-08T06:12:40.038Z,38.03
2023-02-08T06:15:08.833Z,36.55
2023-02-08T06:17:37.301Z,39.30
2023-02-08T06:20:06.227Z,38.65
2023-02-08T06:22:37.519Z,40.83
2023-02-08T06:25:06.686Z,39.38
2023-02-08T06:27:35.034Z,40.40
2023-02-08T06:30:03.545Z,37.97
2023-02-08T06:32:32.049Z,39.17
2023-02-08T06:35:00.358Z,37.83
2023-02-08T06:37:28.749Z,39.85
2023-02-08T06:39:59.217Z,38.58
2023-02-08T06:42:27.723Z,41.20
2023-02-08T06:44:58.133Z,41.65
2023-02-08T06:47:27.736Z,44.17
2023-02-08T06:49:56.304Z,42.55
2023-02-08T06:52:24.521Z,42.00
2023-02-08T06:54:52.926Z,41.60
2023-02-08T06:57:22.716Z,39.72
2023-02-08T06:59:51.091Z,42.38
2023-02-08T07:02:21.645Z,43.58
2023-02-08T07:04:50.367Z,42.13
2023-02-08T07:07:19.958Z,43.78
2023-02-08T07:09:48.263Z,44.80
2023-02-08T07:12:16.636Z,43.72
2023-02-08T07:14:46.371Z,43.78
2023-02-08T07:17:15.037Z,43.90
2023-02-08T07:19:43.345Z,44.35
2023-02-08T07:22:11.609Z,44.78
2023-02-08T07:24:41.336Z,46.20
2023-02-08T07:27:12.847Z,46.33
2023-02-08T07:29:41.719Z,46.17
2023-02-08T07:32:11.835Z,44.38
2023-02-08T07:34:40.921Z,45.13
2023-02-08T07:37:09.795Z,42.85
2023-02-08T07:39:38.225Z,44.67
2023-02-08T07:42:06.922Z,45.00
2023-02-08T07:44:42.203Z,45.95
2023-02-08T07:47:12.083Z,44.42
2023-02-08T07:49:40.388Z,44.97
2023-02-08T07:52:08.498Z,43.10
2023-02-08T07:54:36.850Z,43.90
2023-02-08T07:57:05.231Z,41.65
2023-02-08T07:59:33.569Z,42.88
2023-02-08T08:02:01.937Z,41.22
2023-02-08T08:04:31.643Z,42.45
2023-02-08T08:06:59.975Z,40.92
2023-02-08T08:09:28.486Z,38.05
2023-02-08T08:11:56.788Z,38.70
2023-02-08T08:14:25.065Z,37.45
2023-02-08T08:16:53.436Z,36.92
2023-02-08T08:19:21.733Z,33.80
2023-02-08T08:21:51.319Z,33.90
2023-02-08T08:24:19.602Z,35.70
2023-02-08T08:26:47.872Z,31.90
2023-02-08T08:29:16.197Z,32.55
2023-02-08T08:31:44.710Z,31.02
2023-02-08T08:34:13.054Z,32.72
2023-02-08T08:36:41.468Z,31.48
2023-02-08T08:39:11.249Z,31.73
2023-02-08T08:41:39.552Z,29.83
2023-02-08T08:44:07.925Z,29.42
2023-02-08T08:46:36.337Z,31.25
2023-02-08T08:49:04.834Z,27.05
2023-02-08T08:51:35.518Z,28.75
2023-02-08T08:54:03.870Z,27.42
2023-02-08T08:56:34.102Z,28.67
2023-02-08T08:59:02.370Z,28.45
2023-02-08T09:01:33.026Z,26.48
2023-02-08T09:04:02.181Z,24.98
2023-02-08T09:06:30.493Z,25.35
2023-02-08T09:08:58.941Z,22.63
2023-02-08T09:11:27.217Z,23.73
2023-02-08T09:13:56.936Z,27.48
2023-02-08T09:16:26.295Z,23.48
2023-02-08T09:18:54.642Z,22.73
2023-02-08T09:21:25.400Z,23.52
2023-02-08T09:23:53.830Z,23.08
2023-02-08T09:26:22.934Z,22.75
2023-02-08T09:28:51.492Z,23.35
2023-02-08T09:31:23.686Z,22.23
2023-02-08T09:33:53.289Z,24.13
2023-02-08T09:36:23.200Z,22.08
2023-02-08T09:38:57.667Z,21.13
2023-02-08T09:41:39.330Z,20.38
2023-02-08T09:44:18.733Z,22.45
2023-02-08T09:46:56.905Z,21.77
2023-02-08T09:49:30.361Z,20.17
2023-02-08T09:52:01.831Z,19.87
2023-02-08T09:54:34.612Z,18.65
2023-02-08T09:57:07.294Z,19.67
2023-02-08T09:59:36.640Z,19.73
2023-02-08T10:02:27.242Z,19.58
2023-02-08T10:05:01.534Z,17.77
2023-02-08T10:10:02.300Z,17.92
2023-02-08T10:12:48.089Z,17.75
2023-02-08T10:15:27.718Z,19.33
2023-02-08T10:18:24.511Z,17.95
2023-02-08T10:21:06.297Z,19.65
2023-02-08T10:23:50.542Z,17.80
2023-02-08T10:26:31.460Z,17.92
2023-02-08T10:29:22.625Z,19.63
2023-02-08T10:32:08.983Z,18.27
2023-02-08T10:34:45.646Z,16.60
2023-02-08T10:37:17.263Z,17.73
2023-02-08T10:39:46.313Z,18.95
2023-02-08T10:42:17.266Z,17.73
2023-02-08T10:44:56.897Z,18.63
2023-02-08T10:47:40.574Z,17.58
2023-02-08T10:50:19.152Z,18.27
2023-02-08T10:52:47.935Z,19.30
2023-02-08T10:55:17.513Z,15.82
2023-02-08T10:57:49.229Z,15.75
2023-02-08T11:00:22.477Z,18.20
2023-02-08T11:02:52.935Z,15.57
2023-02-08T11:05:33.104Z,18.63
2023-02-08T11:08:10.437Z,18.08
2023-02-08T11:10:40.379Z,18.33
2023-02-08T11:13:18.575Z,15.30
2023-02-08T11:15:49.202Z,16.77
2023-02-08T11:18:23.423Z,15.82
2023-02-08T11:20:56.450Z,13.50
2023-02-08T11:23:28.274Z,14.10
2023-02-08T11:26:14.235Z,12.95
2023-02-08T11:28:43.081Z,15.65
2023-02-08T11:31:18.645Z,16.17
2023-02-08T11:34:02.130Z,14.50
2023-02-08T11:36:34.105Z,15.23
2023-02-08T11:39:04.207Z,15.93
2023-02-08T11:41:33.044Z,16.55
2023-02-08T11:44:04.438Z,13.98
2023-02-08T11:46:35.900Z,15.63
2023-02-08T11:49:04.774Z,15.23
2023-02-08T11:51:36.223Z,16.38
2023-02-08T11:54:05.792Z,12.80
2023-02-08T11:56:35.673Z,12.13
2023-02-08T11:59:07.841Z,13.60
2023-02-08T12:01:38.120Z,14.50
2023-02-08T12:04:09.426Z,14.98
2023-02-08T12:07:15.405Z,12.98
2023-02-08T12:10:15.775Z,13.00
2023-02-08T12:12:56.240Z,14.30
2023-02-08T12:15:34.477Z,13.63
2023-02-08T12:18:21.838Z,13.85
2023-02-08T12:20:57.346Z,13.68
2023-02-08T12:23:48.850Z,14.00
2023-02-08T12:26:24.555Z,14.50
2023-02-08T12:29:18.998Z,12.05
2023-02-08T12:32:04.057Z,14.23
2023-02-08T12:34:48.695Z,14.38
2023-02-08T12:37:46.123Z,13.27
2023-02-08T12:40:45.529Z,13.80
2023-02-08T12:43:22.846Z,12.35
2023-02-08T12:46:08.366Z,14.38
2023-02-08T12:48:57.160Z,13.82
2023-02-08T12:51:35.905Z,12.55
2023-02-08T12:54:10.064Z,14.15
2023-02-08T12:56:53.618Z,16.10
2023-02-08T12:59:34.962Z,16.05
2023-02-08T13:02:10.737Z,15.63
2023-02-08T13:04:43.414Z,15.75
2023-02-08T13:07:15.843Z,16.15
2023-02-08T13:09:51.063Z,14.40
2023-02-08T13:12:25.112Z,15.85
2023-02-08T13:14:55.829Z,14.20
2023-02-08T13:17:27.966Z,14.23
2023-02-08T13:20:02.174Z,14.80
2023-02-08T13:22:35.757Z,15.43
2023-02-08T13:25:08.300Z,14.52
2023-02-08T13:27:38.519Z,15.43
2023-02-08T13:30:08.260Z,14.00
2023-02-08T13:32:44.214Z,14.40
2023-02-08T13:35:17.924Z,14.63
2023-02-08T13:37:52.867Z,15.10
2023-02-08T13:40:28.418Z,13.60
2023-02-08T13:43:02.309Z,13.35
2023-02-08T13:45:34.447Z,14.50
2023-02-08T13:48:04.719Z,13.23
2023-02-08T13:50:46.963Z,12.48
2023-02-08T13:53:17.424Z,13.02
2023-02-08T13:56:08.310Z,13.00
2023-02-08T13:59:01.153Z,13.38
2023-02-08T14:01:30.967Z,13.10
2023-02-08T14:04:32.994Z,12.68
2023-02-08T14:07:06.092Z,14.10
2023-02-08T14:09:47.437Z,12.70
2023-02-08T14:12:24.091Z,14.35
2023-02-08T14:15:29.863Z,13.20
2023-02-08T14:18:00.814Z,12.10
2023-02-08T14:20:36.439Z,13.27
2023-02-08T14:23:07.957Z,13.00
2023-02-08T14:25:46.339Z,12.82
2023-02-08T14:28:30.418Z,12.55
2023-02-08T14:31:01.346Z,13.23
2023-02-08T14:33:33.453Z,12.77
2023-02-08T14:36:05.125Z,12.40
2023-02-08T14:39:05.107Z,12.80
2023-02-08T14:41:57.317Z,13.05
2023-02-08T14:45:02.784Z,13.20
2023-02-08T14:48:08.040Z,13.15
2023-02-08T14:53:30.507Z,13.50
2023-02-08T14:56:04.171Z,15.90
2023-02-08T14:58:35.857Z,16.50
2023-02-08T15:01:08.982Z,17.13
2023-02-08T15:03:37.747Z,16.95
2023-02-08T15:06:35.277Z,17.67
2023-02-08T15:09:04.383Z,17.98
2023-02-08T15:11:34.664Z,17.77
2023-02-08T15:14:06.004Z,18.70
2023-02-08T15:16:37.997Z,19.70
2023-02-08T15:19:08.564Z,19.75
2023-02-08T15:21:39.122Z,20.55
2023-02-08T15:24:17.154Z,20.92
2023-02-08T15:26:46.279Z,20.20
2023-02-08T15:29:30.091Z,20.83
2023-02-08T15:32:04.467Z,19.63
2023-02-08T15:34:34.202Z,19.77
2023-02-08T15:37:04.829Z,19.52
2023-02-08T15:39:38.669Z,20.63
2023-02-08T15:42:15.962Z,21.70
2023-02-08T15:44:45.196Z,19.95
2023-02-08T15:47:19.218Z,20.75
2023-02-08T15:49:50.945Z,19.55
2023-02-08T15:52:23.691Z,20.67
2023-02-08T15:54:52.883Z,20.25
2023-02-08T15:57:30.782Z,21.13
2023-02-08T16:00:00.108Z,20.27
2023-02-08T16:02:31.206Z,20.45
2023-02-08T16:05:00.245Z,20.63
2023-02-08T16:07:35.047Z,20.17
2023-02-08T16:10:04.120Z,21.33
2023-02-08T16:12:32.822Z,20.60
2023-02-08T16:15:01.061Z,20.80
2023-02-08T16:17:43.109Z,20.58
2023-02-08T16:20:29.220Z,21.92
2023-02-08T16:23:02.343Z,22.38
2023-02-08T16:25:44.580Z,20.75
2023-02-08T16:28:27.571Z,20.55
2023-02-08T16:30:57.285Z,18.98
2023-02-08T16:33:26.077Z,18.75
2023-02-08T16:36:01.870Z,17.52
2023-02-08T16:38:34.056Z,18.38
2023-02-08T16:41:13.170Z,16.60
2023-02-08T16:43:44.187Z,16.15
2023-02-08T16:46:21.536Z,15.98
2023-02-08T16:48:51.980Z,14.38
2023-02-08T16:51:23.126Z,15.13
2023-02-08T16:53:55.869Z,15.75
2023-02-08T16:56:25.029Z,15.23
2023-02-08T16:58:53.504Z,14.10
2023-02-08T17:01:23.529Z,13.32
2023-02-08T17:03:53.207Z,13.07
2023-02-08T17:06:30.445Z,14.27
2023-02-08T17:09:01.095Z,13.88
2023-02-08T17:11:29.742Z,13.43
2023-02-08T17:13:58.810Z,13.43
2023-02-08T17:16:29.298Z,13.60
2023-02-08T17:18:58.465Z,12.98
2023-02-08T17:21:27.466Z,11.85
2023-02-08T17:26:45.081Z,10.98
2023-02-08T17:29:14.095Z,10.40
2023-02-08T17:31:42.305Z,10.75
2023-02-08T17:34:10.780Z,10.27
2023-02-08T17:36:41.126Z,9.70
2023-02-08T17:39:12.045Z,10.50
2023-02-08T17:41:42.831Z,10.63
2023-02-08T17:44:13.019Z,10.75
2023-02-08T17:46:41.276Z,9.88
2023-02-08T17:49:09.620Z,10.93
2023-02-08T17:51:38.137Z,10.55
2023-02-08T17:54:06.613Z,11.70
2023-02-08T17:56:36.322Z,11.25
2023-02-08T17:59:06.039Z,11.73
2023-02-08T18:01:35.051Z,11.02
2023-02-08T18:04:03.550Z,11.55
2023-02-08T18:06:31.905Z,11.35
2023-02-08T18:09:00.033Z,10.73
2023-02-08T18:11:28.154Z,11.45
2023-02-08T18:13:56.542Z,11.05
2023-02-08T18:16:28.071Z,11.57
2023-02-08T18:18:57.085Z,11.20
2023-02-08T18:21:26.630Z,10.82
2023-02-08T18:23:56.040Z,11.93
2023-02-08T18:26:25.733Z,12.68
2023-02-08T18:28:54.013Z,11.50
2023-02-08T18:31:22.522Z,12.02
2023-02-08T18:33:52.832Z,12.52
2023-02-08T18:36:22.057Z,11.98
2023-02-08T18:38:52.537Z,11.48
2023-02-08T18:41:23.571Z,12.77
2023-02-08T18:43:53.294Z,12.50
2023-02-08T18:46:22.984Z,11.90
2023-02-08T18:48:53.964Z,12.07
2023-02-08T18:51:23.349Z,11.85
2023-02-08T18:53:54.743Z,13.25
2023-02-08T18:56:25.146Z,12.77
2023-02-08T18:58:54.391Z,13.43
2023-02-08T19:01:24.585Z,13.68
2023-02-08T19:03:54.388Z,13.60
2023-02-08T19:06:25.367Z,13.80
2023-02-08T19:08:55.532Z,14.10
2023-02-08T19:11:25.675Z,14.88
2023-02-08T19:13:54.779Z,14.60
2023-02-08T19:16:24.523Z,14.32
2023-02-08T19:18:56.371Z,14.73
2023-02-08T19:21:25.033Z,15.93
2023-02-08T19:23:54.275Z,15.68
2023-02-08T19:26:24.442Z,16.73
2023-02-08T19:28:54.050Z,16.00
2023-02-08T19:31:23.860Z,15.65
2023-02-08T19:33:58.816Z,16.52
2023-02-08T19:36:29.924Z,16.35
2023-02-08T19:38:58.670Z,15.63
2023-02-08T19:41:29.334Z,16.77
2023-02-08T19:43:57.611Z,17.98
2023-02-08T19:46:27.555Z,17.55
2023-02-08T19:49:00.338Z,19.25
2023-02-08T19:51:30.357Z,17.70
2023-02-08T19:53:58.776Z,17.67
2023-02-08T19:56:27.099Z,17.67
2023-02-08T19:58:55.326Z,18.70
2023-02-08T20:01:24.184Z,18.67
2023-02-08T20:03:55.050Z,18.52
2023-02-08T20:06:25.962Z,20.42
2023-02-08T20:08:54.785Z,20.08
2023-02-08T20:11:24.888Z,19.55
2023-02-08T20:13:53.788Z,20.70
2023-02-08T20:16:23.203Z,21.65
2023-02-08T20:18:52.053Z,22.05
2023-02-08T20:21:20.729Z,21.33
2023-02-08T20:23:51.034Z,21.92
2023-02-08T20:26:21.964Z,23.50
2023-02-08T20:28:52.274Z,22.45
2023-02-08T20:31:22.835Z,22.65
2023-02-08T20:33:52.065Z,23.83
2023-02-08T20:36:22.100Z,22.95
2023-02-08T20:38:53.712Z,23.90
2023-02-08T20:41:22.769Z,22.63
2023-02-08T20:43:51.313Z,23.77
2023-02-08T20:46:23.123Z,24.25
2023-02-08T20:48:52.151Z,24.40
2023-02-08T20:51:22.409Z,23.90
2023-02-08T20:53:52.630Z,23.55
2023-02-08T20:56:25.480Z,24.35
2023-02-08T20:58:55.487Z,25.53
2023-02-08T21:01:25.944Z,24.83
2023-02-08T21:03:54.925Z,25.80
2023-02-08T21:06:26.614Z,25.73
2023-02-08T21:08:56.590Z,25.88
2023-02-08T21:11:27.386Z,25.70
2023-02-08T21:13:56.323Z,26.67
2023-02-08T21:16:25.327Z,27.52
2023-02-08T21:18:54.219Z,25.58
2023-02-08T21:21:22.396Z,26.52
2023-02-08T21:23:50.895Z,27.40
2023-02-08T21:26:22.021Z,27.40
2023-02-08T21:28:54.124Z,26.88
2023-02-08T21:31:24.160Z,27.80
2023-02-08T21:33:53.028Z,27.63
2023-02-08T21:36:23.207Z,29.67
2023-02-08T21:38:54.534Z,27.88
2023-02-08T21:41:26.622Z,30.33
2023-02-08T21:43:56.916Z,29.83
2023-02-08T21:46:27.366Z,28.90
2023-02-08T21:49:13.461Z,29.17
2023-02-08T21:51:59.347Z,29.95
2023-02-08T21:54:45.921Z,30.20
2023-02-08T21:57:18.783Z,30.95
2023-02-08T21:59:50.058Z,30.45
2023-02-08T22:02:21.711Z,32.70
2023-02-08T22:05:08.315Z,30.83
2023-02-08T22:07:45.211Z,32.33
2023-02-08T22:10:15.084Z,32.03
2023-02-08T22:12:44.806Z,34.10
2023-02-08T22:15:15.621Z,32.67
2023-02-08T22:17:44.265Z,32.03
2023-02-08T22:20:13.385Z,33.38
2023-02-08T22:22:41.574Z,31.50
2023-02-08T22:25:10.551Z,32.60
2023-02-08T22:27:42.066Z,30.10
2023-02-08T22:30:14.947Z,32.05
2023-02-08T22:32:43.984Z,31.30
2023-02-08T22:35:13.464Z,32.88
2023-02-08T22:37:42.353Z,32.90
2023-02-08T22:40:12.594Z,33.03
2023-02-08T22:42:40.989Z,33.50
2023-02-08T22:45:11.470Z,33.58
2023-02-08T22:47:39.803Z,34.70
2023-02-08T22:50:08.698Z,33.05
2023-02-08T22:52:37.276Z,35.33
2023-02-08T22:55:06.570Z,32.92
2023-02-08T22:57:36.423Z,34.83
2023-02-08T23:00:06.074Z,35.60
2023-02-08T23:02:35.647Z,35.47
2023-02-08T23:05:03.819Z,35.13
2023-02-08T23:07:32.353Z,34.47
2023-02-08T23:10:00.523Z,35.83
2023-02-08T23:12:28.878Z,36.22
2023-02-08T23:14:57.166Z,34.28
2023-02-08T23:17:25.434Z,34.65
2023-02-08T23:19:54.929Z,34.03
2023-02-08T23:22:23.474Z,35.53
2023-02-08T23:24:51.558Z,36.75
2023-02-08T23:27:19.847Z,34.70
2023-02-08T23:29:48.187Z,35.03
2023-02-08T23:32:16.394Z,33.80
2023-02-08T23:34:44.506Z,34.97
2023-02-08T23:37:14.403Z,35.67
2023-02-08T23:39:42.556Z,34.58
2023-02-08T23:42:25.534Z,33.90
2023-02-08T23:44:53.851Z,35.10
2023-02-08T23:47:22.889Z,34.63
2023-02-08T23:49:51.944Z,35.22
2023-02-08T23:52:21.940Z,35.25
2023-02-08T23:54:50.452Z,36.35
2023-02-08T23:57:18.839Z,34.88
2023-02-08T23:59:46.982Z,35.33
